sensor_id;sensor_type;location;lat;lon;timestamp;P1;durP1;ratioP1;P2;durP2;ratioP2
11187;SDS011;5650;52.700;7.306;2023-02-04T00:02:08;40.10;;;7.22;;
11187;SDS011;5650;52.700;7.306;2023-02-04T00:04:35;44.70;;;7.07;;
11187;SDS011;5650;52.700;7.306;2023-02-04T00:07:05;45.90;;;8.00;;
11187;SDS011;5650;52.700;7.306;2023-02-04T00:09:45;35.50;;;6.30;;
11187;SDS011;5650;52.700;7.306;2023-02-04T00:12:14;45.13;;;7.20;;
11187;SDS011;5650;52.700;7.306;2023-02-04T00:14:41;44.88;;;7.20;;
11187;SDS011;5650;52.700;7.306;2023-02-04T00:17:09;35.55;;;7.10;;
11187;SDS011;5650;52.700;7.306;2023-02-04T00:19:37;42.88;;;7.85;;
11187;SDS011;5650;52.700;7.306;2023-02-04T00:22:05;38.85;;;7.07;;
11187;SDS011;5650;52.700;7.306;2023-02-04T00:24:32;35.97;;;6.63;;
11187;SDS011;5650;52.700;7.306;2023-02-04T00:27:01;35.90;;;7.13;;
11187;SDS011;5650;52.700;7.306;2023-02-04T00:29:29;40.40;;;6.95;;
11187;SDS011;5650;52.700;7.306;2023-02-04T00:31:56;35.15;;;6.63;;
11187;SDS011;5650;52.700;7.306;2023-02-04T00:34:23;43.33;;;7.90;;
11187;SDS011;5650;52.700;7.306;2023-02-04T00:36:56;44.55;;;6.50;;
11187;SDS011;5650;52.700;7.306;2023-02-04T00:39:23;50.47;;;8.05;;
11187;SDS011;5650;52.700;7.306;2023-02-04T00:41:50;42.17;;;6.47;;
11187;SDS011;5650;52.700;7.306;2023-02-04T00:44:19;49.90;;;7.28;;
11187;SDS011;5650;52.700;7.306;2023-02-04T00:46:46;44.20;;;7.13;;
11187;SDS011;5650;52.700;7.306;2023-02-04T00:49:13;36.53;;;6.68;;
11187;SDS011;5650;52.700;7.306;2023-02-04T00:51:40;48.72;;;7.75;;
11187;SDS011;5650;52.700;7.306;2023-02-04T00:54:10;45.55;;;7.15;;
11187;SDS011;5650;52.700;7.306;2023-02-04T00:56:39;43.88;;;7.63;;
11187;SDS011;5650;52.700;7.306;2023-02-04T00:59:07;43.55;;;7.07;;
11187;SDS011;5650;52.700;7.306;2023-02-04T01:01:38;43.83;;;7.10;;
11187;SDS011;5650;52.700;7.306;2023-02-04T01:04:08;40.08;;;7.13;;
11187;SDS011;5650;52.700;7.306;2023-02-04T01:06:39;40.75;;;7.03;;
11187;SDS011;5650;52.700;7.306;2023-02-04T01:09:06;34.15;;;7.35;;
11187;SDS011;5650;52.700;7.306;2023-02-04T01:11:37;41.25;;;8.05;;
11187;SDS011;5650;52.700;7.306;2023-02-04T01:14:10;45.95;;;7.22;;
11187;SDS011;5650;52.700;7.306;2023-02-04T01:16:42;37.42;;;7.03;;
11187;SDS011;5650;52.700;7.306;2023-02-04T01:19:09;44.53;;;6.65;;
11187;SDS011;5650;52.700;7.306;2023-02-04T01:21:37;42.22;;;7.50;;
11187;SDS011;5650;52.700;7.306;2023-02-04T01:24:10;39.00;;;7.50;;
11187;SDS011;5650;52.700;7.306;2023-02-04T01:26:37;44.35;;;8.13;;
11187;SDS011;5650;52.700;7.306;2023-02-04T01:29:04;50.83;;;6.78;;
11187;SDS011;5650;52.700;7.306;2023-02-04T01:31:37;47.53;;;7.88;;
11187;SDS011;5650;52.700;7.306;2023-02-04T01:34:05;53.30;;;7.22;;
11187;SDS011;5650;52.700;7.306;2023-02-04T01:36:32;43.28;;;6.55;;
11187;SDS011;5650;52.700;7.306;2023-02-04T01:38:59;48.45;;;8.02;;
11187;SDS011;5650;52.700;7.306;2023-02-04T01:41:30;42.35;;;7.80;;
11187;SDS011;5650;52.700;7.306;2023-02-04T01:43:57;49.72;;;7.43;;
11187;SDS011;5650;52.700;7.306;2023-02-04T01:46:25;46.08;;;6.95;;
11187;SDS011;5650;52.700;7.306;2023-02-04T01:48:52;52.33;;;8.15;;
11187;SDS011;5650;52.700;7.306;2023-02-04T01:51:25;50.58;;;7.40;;
11187;SDS011;5650;52.700;7.306;2023-02-04T01:53:56;44.13;;;7.32;;
11187;SDS011;5650;52.700;7.306;2023-02-04T01:56:24;45.70;;;7.90;;
11187;SDS011;5650;52.700;7.306;2023-02-04T01:58:53;39.85;;;6.70;;
11187;SDS011;5650;52.700;7.306;2023-02-04T02:01:33;53.80;;;8.00;;
11187;SDS011;5650;52.700;7.306;2023-02-04T02:04:02;60.75;;;10.10;;
11187;SDS011;5650;52.700;7.306;2023-02-04T02:06:31;53.28;;;8.35;;
11187;SDS011;5650;52.700;7.306;2023-02-04T02:08:58;44.85;;;7.32;;
11187;SDS011;5650;52.700;7.306;2023-02-04T02:11:26;44.67;;;8.05;;
11187;SDS011;5650;52.700;7.306;2023-02-04T02:13:54;43.30;;;7.57;;
11187;SDS011;5650;52.700;7.306;2023-02-04T02:16:21;38.78;;;6.97;;
11187;SDS011;5650;52.700;7.306;2023-02-04T02:18:56;37.80;;;6.75;;
11187;SDS011;5650;52.700;7.306;2023-02-04T02:21:28;45.85;;;7.45;;
11187;SDS011;5650;52.700;7.306;2023-02-04T02:24:03;52.13;;;7.32;;
11187;SDS011;5650;52.700;7.306;2023-02-04T02:26:55;53.75;;;7.35;;
11187;SDS011;5650;52.700;7.306;2023-02-04T02:29:25;38.03;;;6.60;;
11187;SDS011;5650;52.700;7.306;2023-02-04T02:31:55;46.53;;;7.43;;
11187;SDS011;5650;52.700;7.306;2023-02-04T02:34:29;48.30;;;8.05;;
11187;SDS011;5650;52.700;7.306;2023-02-04T02:36:57;49.03;;;7.32;;
11187;SDS011;5650;52.700;7.306;2023-02-04T02:39:29;37.97;;;6.43;;
11187;SDS011;5650;52.700;7.306;2023-02-04T02:41:57;48.90;;;7.80;;
11187;SDS011;5650;52.700;7.306;2023-02-04T02:44:24;48.90;;;7.80;;
11187;SDS011;5650;52.700;7.306;2023-02-04T02:46:53;46.05;;;7.72;;
11187;SDS011;5650;52.700;7.306;2023-02-04T02:49:26;40.25;;;6.75;;
11187;SDS011;5650;52.700;7.306;2023-02-04T02:51:56;44.15;;;7.88;;
11187;SDS011;5650;52.700;7.306;2023-02-04T02:54:24;36.88;;;7.18;;
11187;SDS011;5650;52.700;7.306;2023-02-04T02:56:57;36.25;;;6.85;;
11187;SDS011;5650;52.700;7.306;2023-02-04T02:59:25;44.88;;;8.70;;
11187;SDS011;5650;52.700;7.306;2023-02-04T03:01:54;44.60;;;6.95;;
11187;SDS011;5650;52.700;7.306;2023-02-04T03:04:27;35.45;;;6.25;;
11187;SDS011;5650;52.700;7.306;2023-02-04T03:07:00;38.45;;;6.68;;
11187;SDS011;5650;52.700;7.306;2023-02-04T03:09:28;33.67;;;6.57;;
11187;SDS011;5650;52.700;7.306;2023-02-04T03:11:57;35.05;;;7.00;;
11187;SDS011;5650;52.700;7.306;2023-02-04T03:14:27;36.80;;;6.80;;
11187;SDS011;5650;52.700;7.306;2023-02-04T03:16:55;39.20;;;6.75;;
11187;SDS011;5650;52.700;7.306;2023-02-04T03:19:23;45.40;;;7.80;;
11187;SDS011;5650;52.700;7.306;2023-02-04T03:21:51;37.28;;;6.38;;
11187;SDS011;5650;52.700;7.306;2023-02-04T03:24:19;39.53;;;6.80;;
11187;SDS011;5650;52.700;7.306;2023-02-04T03:26:47;40.53;;;7.40;;
11187;SDS011;5650;52.700;7.306;2023-02-04T03:29:18;50.17;;;7.00;;
11187;SDS011;5650;52.700;7.306;2023-02-04T03:31:46;36.20;;;6.40;;
11187;SDS011;5650;52.700;7.306;2023-02-04T03:34:13;52.25;;;7.68;;
11187;SDS011;5650;52.700;7.306;2023-02-04T03:36:49;44.40;;;7.97;;
11187;SDS011;5650;52.700;7.306;2023-02-04T03:39:16;36.65;;;7.25;;
11187;SDS011;5650;52.700;7.306;2023-02-04T03:41:43;50.80;;;8.75;;
11187;SDS011;5650;52.700;7.306;2023-02-04T03:44:10;45.78;;;7.57;;
11187;SDS011;5650;52.700;7.306;2023-02-04T03:46:42;48.42;;;7.07;;
11187;SDS011;5650;52.700;7.306;2023-02-04T03:49:12;41.47;;;7.15;;
11187;SDS011;5650;52.700;7.306;2023-02-04T03:51:39;42.00;;;7.22;;
11187;SDS011;5650;52.700;7.306;2023-02-04T03:54:06;52.70;;;7.78;;
11187;SDS011;5650;52.700;7.306;2023-02-04T03:56:33;54.10;;;7.40;;
11187;SDS011;5650;52.700;7.306;2023-02-04T03:59:04;50.70;;;8.73;;
11187;SDS011;5650;52.700;7.306;2023-02-04T04:01:31;43.75;;;8.23;;
11187;SDS011;5650;52.700;7.306;2023-02-04T04:04:02;41.30;;;6.72;;
11187;SDS011;5650;52.700;7.306;2023-02-04T04:06:29;56.53;;;8.25;;
11187;SDS011;5650;52.700;7.306;2023-02-04T04:08:56;37.47;;;6.25;;
11187;SDS011;5650;52.700;7.306;2023-02-04T04:11:23;39.53;;;6.25;;
11187;SDS011;5650;52.700;7.306;2023-02-04T04:13:51;49.58;;;8.95;;
11187;SDS011;5650;52.700;7.306;2023-02-04T04:16:18;41.05;;;7.53;;
11187;SDS011;5650;52.700;7.306;2023-02-04T04:18:48;49.45;;;7.47;;
11187;SDS011;5650;52.700;7.306;2023-02-04T04:21:20;47.58;;;8.23;;
11187;SDS011;5650;52.700;7.306;2023-02-04T04:23:47;47.67;;;8.05;;
11187;SDS011;5650;52.700;7.306;2023-02-04T04:26:14;36.47;;;7.57;;
11187;SDS011;5650;52.700;7.306;2023-02-04T04:28:45;42.58;;;6.82;;
11187;SDS011;5650;52.700;7.306;2023-02-04T04:31:15;46.65;;;8.05;;
11187;SDS011;5650;52.700;7.306;2023-02-04T04:33:42;51.70;;;7.72;;
11187;SDS011;5650;52.700;7.306;2023-02-04T04:36:09;42.70;;;6.97;;
11187;SDS011;5650;52.700;7.306;2023-02-04T04:38:41;41.22;;;7.05;;
11187;SDS011;5650;52.700;7.306;2023-02-04T04:41:11;42.20;;;7.57;;
11187;SDS011;5650;52.700;7.306;2023-02-04T04:43:41;52.83;;;9.02;;
11187;SDS011;5650;52.700;7.306;2023-02-04T04:46:08;47.40;;;7.57;;
11187;SDS011;5650;52.700;7.306;2023-02-04T04:48:36;38.75;;;7.18;;
11187;SDS011;5650;52.700;7.306;2023-02-04T04:51:03;48.20;;;7.10;;
11187;SDS011;5650;52.700;7.306;2023-02-04T04:53:30;36.22;;;6.25;;
11187;SDS011;5650;52.700;7.306;2023-02-04T04:55:59;44.45;;;8.32;;
11187;SDS011;5650;52.700;7.306;2023-02-04T04:58:29;53.22;;;7.68;;
11187;SDS011;5650;52.700;7.306;2023-02-04T05:00:56;43.10;;;6.63;;
11187;SDS011;5650;52.700;7.306;2023-02-04T05:03:23;44.25;;;7.38;;
11187;SDS011;5650;52.700;7.306;2023-02-04T05:05:51;47.90;;;7.05;;
11187;SDS011;5650;52.700;7.306;2023-02-04T05:08:24;44.17;;;6.97;;
11187;SDS011;5650;52.700;7.306;2023-02-04T05:10:51;32.05;;;6.72;;
11187;SDS011;5650;52.700;7.306;2023-02-04T05:13:20;38.15;;;6.75;;
11187;SDS011;5650;52.700;7.306;2023-02-04T05:15:49;38.70;;;6.25;;
11187;SDS011;5650;52.700;7.306;2023-02-04T05:18:16;35.88;;;6.38;;
11187;SDS011;5650;52.700;7.306;2023-02-04T05:20:43;35.45;;;6.63;;
11187;SDS011;5650;52.700;7.306;2023-02-04T05:23:17;36.40;;;7.60;;
11187;SDS011;5650;52.700;7.306;2023-02-04T05:25:44;38.00;;;6.55;;
11187;SDS011;5650;52.700;7.306;2023-02-04T05:28:11;31.85;;;6.00;;
11187;SDS011;5650;52.700;7.306;2023-02-04T05:30:40;33.67;;;6.82;;
11187;SDS011;5650;52.700;7.306;2023-02-04T05:33:07;35.42;;;6.38;;
11187;SDS011;5650;52.700;7.306;2023-02-04T05:35:34;35.92;;;6.13;;
11187;SDS011;5650;52.700;7.306;2023-02-04T05:38:10;35.10;;;6.10;;
11187;SDS011;5650;52.700;7.306;2023-02-04T05:40:37;31.15;;;5.57;;
11187;SDS011;5650;52.700;7.306;2023-02-04T05:43:04;41.97;;;6.10;;
11187;SDS011;5650;52.700;7.306;2023-02-04T05:45:31;31.23;;;4.97;;
11187;SDS011;5650;52.700;7.306;2023-02-04T05:48:00;27.27;;;5.22;;
11187;SDS011;5650;52.700;7.306;2023-02-04T05:50:30;26.45;;;5.63;;
11187;SDS011;5650;52.700;7.306;2023-02-04T05:52:57;25.52;;;5.68;;
11187;SDS011;5650;52.700;7.306;2023-02-04T05:55:24;29.02;;;5.25;;
11187;SDS011;5650;52.700;7.306;2023-02-04T05:57:54;34.88;;;5.80;;
11187;SDS011;5650;52.700;7.306;2023-02-04T06:00:21;24.75;;;5.00;;
11187;SDS011;5650;52.700;7.306;2023-02-04T06:05:49;24.15;;;5.18;;
11187;SDS011;5650;52.700;7.306;2023-02-04T06:08:16;23.05;;;5.43;;
11187;SDS011;5650;52.700;7.306;2023-02-04T06:10:43;20.98;;;4.88;;
11187;SDS011;5650;52.700;7.306;2023-02-04T06:13:10;27.17;;;5.15;;
11187;SDS011;5650;52.700;7.306;2023-02-04T06:15:38;22.77;;;5.00;;
11187;SDS011;5650;52.700;7.306;2023-02-04T06:18:05;23.92;;;3.90;;
11187;SDS011;5650;52.700;7.306;2023-02-04T06:20:34;18.35;;;3.25;;
11187;SDS011;5650;52.700;7.306;2023-02-04T06:23:01;17.63;;;4.00;;
11187;SDS011;5650;52.700;7.306;2023-02-04T06:25:28;15.55;;;3.17;;
11187;SDS011;5650;52.700;7.306;2023-02-04T06:27:55;13.50;;;3.10;;
11187;SDS011;5650;52.700;7.306;2023-02-04T06:30:22;21.85;;;3.85;;
11187;SDS011;5650;52.700;7.306;2023-02-04T06:32:49;10.38;;;2.75;;
11187;SDS011;5650;52.700;7.306;2023-02-04T06:35:17;20.42;;;4.03;;
11187;SDS011;5650;52.700;7.306;2023-02-04T06:37:45;16.83;;;4.57;;
11187;SDS011;5650;52.700;7.306;2023-02-04T06:40:13;16.80;;;2.88;;
11187;SDS011;5650;52.700;7.306;2023-02-04T06:42:40;19.40;;;4.10;;
11187;SDS011;5650;52.700;7.306;2023-02-04T06:45:07;14.52;;;3.03;;
11187;SDS011;5650;52.700;7.306;2023-02-04T06:47:35;16.77;;;3.30;;
11187;SDS011;5650;52.700;7.306;2023-02-04T06:50:02;13.45;;;2.90;;
11187;SDS011;5650;52.700;7.306;2023-02-04T06:52:29;14.48;;;3.03;;
11187;SDS011;5650;52.700;7.306;2023-02-04T06:54:58;11.10;;;2.47;;
11187;SDS011;5650;52.700;7.306;2023-02-04T06:57:25;13.80;;;3.00;;
11187;SDS011;5650;52.700;7.306;2023-02-04T06:59:52;13.02;;;2.70;;
11187;SDS011;5650;52.700;7.306;2023-02-04T07:02:19;15.02;;;2.60;;
11187;SDS011;5650;52.700;7.306;2023-02-04T07:04:46;14.57;;;2.88;;
11187;SDS011;5650;52.700;7.306;2023-02-04T07:07:19;11.93;;;2.33;;
11187;SDS011;5650;52.700;7.306;2023-02-04T07:09:46;17.52;;;3.15;;
11187;SDS011;5650;52.700;7.306;2023-02-04T07:12:15;10.27;;;2.67;;
11187;SDS011;5650;52.700;7.306;2023-02-04T07:14:42;14.23;;;2.78;;
11187;SDS011;5650;52.700;7.306;2023-02-04T07:17:09;8.38;;;2.75;;
11187;SDS011;5650;52.700;7.306;2023-02-04T07:19:36;18.25;;;3.15;;
11187;SDS011;5650;52.700;7.306;2023-02-04T07:22:03;12.07;;;2.53;;
11187;SDS011;5650;52.700;7.306;2023-02-04T07:24:30;11.60;;;2.78;;
11187;SDS011;5650;52.700;7.306;2023-02-04T07:26:57;15.77;;;3.13;;
11187;SDS011;5650;52.700;7.306;2023-02-04T07:29:26;11.90;;;2.90;;
11187;SDS011;5650;52.700;7.306;2023-02-04T07:31:53;15.88;;;2.97;;
11187;SDS011;5650;52.700;7.306;2023-02-04T07:34:21;14.65;;;4.88;;
11187;SDS011;5650;52.700;7.306;2023-02-04T07:36:48;8.73;;;4.00;;
11187;SDS011;5650;52.700;7.306;2023-02-04T07:39:15;21.35;;;6.05;;
11187;SDS011;5650;52.700;7.306;2023-02-04T07:41:42;13.32;;;3.58;;
11187;SDS011;5650;52.700;7.306;2023-02-04T07:44:09;14.85;;;4.03;;
11187;SDS011;5650;52.700;7.306;2023-02-04T07:46:38;8.85;;;3.67;;
11187;SDS011;5650;52.700;7.306;2023-02-04T07:49:05;13.00;;;2.75;;
11187;SDS011;5650;52.700;7.306;2023-02-04T07:51:32;12.20;;;2.92;;
11187;SDS011;5650;52.700;7.306;2023-02-04T07:54:00;13.23;;;3.08;;
11187;SDS011;5650;52.700;7.306;2023-02-04T07:56:27;18.58;;;3.50;;
11187;SDS011;5650;52.700;7.306;2023-02-04T07:58:54;17.30;;;4.03;;
11187;SDS011;5650;52.700;7.306;2023-02-04T08:01:21;10.82;;;3.03;;
11187;SDS011;5650;52.700;7.306;2023-02-04T08:03:50;9.25;;;2.67;;
11187;SDS011;5650;52.700;7.306;2023-02-04T08:06:17;11.52;;;2.83;;
11187;SDS011;5650;52.700;7.306;2023-02-04T08:08:44;9.18;;;2.78;;
11187;SDS011;5650;52.700;7.306;2023-02-04T08:11:11;11.90;;;3.55;;
11187;SDS011;5650;52.700;7.306;2023-02-04T08:13:38;10.80;;;4.22;;
11187;SDS011;5650;52.700;7.306;2023-02-04T08:16:06;11.23;;;3.40;;
11187;SDS011;5650;52.700;7.306;2023-02-04T08:18:33;10.65;;;2.85;;
11187;SDS011;5650;52.700;7.306;2023-02-04T08:21:02;9.43;;;3.13;;
11187;SDS011;5650;52.700;7.306;2023-02-04T08:23:30;10.02;;;3.90;;
11187;SDS011;5650;52.700;7.306;2023-02-04T08:25:58;7.22;;;2.88;;
11187;SDS011;5650;52.700;7.306;2023-02-04T08:28:25;16.08;;;3.35;;
11187;SDS011;5650;52.700;7.306;2023-02-04T08:30:58;13.88;;;4.20;;
11187;SDS011;5650;52.700;7.306;2023-02-04T08:33:25;13.55;;;3.92;;
11187;SDS011;5650;52.700;7.306;2023-02-04T08:35:56;14.88;;;5.57;;
11187;SDS011;5650;52.700;7.306;2023-02-04T08:38:25;34.58;;;19.08;;
11187;SDS011;5650;52.700;7.306;2023-02-04T08:40:52;10.65;;;4.30;;
11187;SDS011;5650;52.700;7.306;2023-02-04T08:43:19;14.10;;;4.57;;
11187;SDS011;5650;52.700;7.306;2023-02-04T08:45:46;10.70;;;4.05;;
11187;SDS011;5650;52.700;7.306;2023-02-04T08:48:13;27.27;;;14.52;;
11187;SDS011;5650;52.700;7.306;2023-02-04T08:50:46;17.05;;;7.18;;
11187;SDS011;5650;52.700;7.306;2023-02-04T08:53:16;11.90;;;3.53;;
11187;SDS011;5650;52.700;7.306;2023-02-04T08:55:45;6.47;;;3.10;;
11187;SDS011;5650;52.700;7.306;2023-02-04T08:58:15;5.97;;;2.80;;
11187;SDS011;5650;52.700;7.306;2023-02-04T09:00:43;10.48;;;2.70;;
11187;SDS011;5650;52.700;7.306;2023-02-04T09:03:10;8.25;;;3.00;;
11187;SDS011;5650;52.700;7.306;2023-02-04T09:05:40;10.95;;;2.58;;
11187;SDS011;5650;52.700;7.306;2023-02-04T09:08:07;8.48;;;2.63;;
11187;SDS011;5650;52.700;7.306;2023-02-04T09:10:41;8.43;;;2.75;;
11187;SDS011;5650;52.700;7.306;2023-02-04T09:13:09;9.52;;;2.75;;
11187;SDS011;5650;52.700;7.306;2023-02-04T09:15:46;9.13;;;2.90;;
11187;SDS011;5650;52.700;7.306;2023-02-04T09:18:17;13.40;;;4.72;;
11187;SDS011;5650;52.700;7.306;2023-02-04T09:20:46;7.50;;;3.35;;
11187;SDS011;5650;52.700;7.306;2023-02-04T09:23:14;9.15;;;3.53;;
11187;SDS011;5650;52.700;7.306;2023-02-04T09:25:47;6.80;;;2.80;;
11187;SDS011;5650;52.700;7.306;2023-02-04T09:28:16;8.05;;;2.53;;
11187;SDS011;5650;52.700;7.306;2023-02-04T09:30:44;7.97;;;3.20;;
11187;SDS011;5650;52.700;7.306;2023-02-04T09:33:12;12.73;;;3.45;;
11187;SDS011;5650;52.700;7.306;2023-02-04T09:35:40;12.95;;;7.15;;
11187;SDS011;5650;52.700;7.306;2023-02-04T09:38:11;49.85;;;37.30;;
11187;SDS011;5650;52.700;7.306;2023-02-04T09:40:41;13.18;;;10.40;;
11187;SDS011;5650;52.700;7.306;2023-02-04T09:43:14;11.35;;;7.63;;
11187;SDS011;5650;52.700;7.306;2023-02-04T09:45:47;9.00;;;3.45;;
11187;SDS011;5650;52.700;7.306;2023-02-04T09:48:15;15.38;;;13.75;;
11187;SDS011;5650;52.700;7.306;2023-02-04T09:50:42;15.23;;;9.63;;
11187;SDS011;5650;52.700;7.306;2023-02-04T09:53:11;7.75;;;3.88;;
11187;SDS011;5650;52.700;7.306;2023-02-04T09:55:42;10.57;;;4.68;;
11187;SDS011;5650;52.700;7.306;2023-02-04T09:58:12;12.95;;;3.17;;
11187;SDS011;5650;52.700;7.306;2023-02-04T10:00:43;8.23;;;2.65;;
11187;SDS011;5650;52.700;7.306;2023-02-04T10:03:13;12.68;;;3.28;;
11187;SDS011;5650;52.700;7.306;2023-02-04T10:05:42;7.05;;;2.70;;
11187;SDS011;5650;52.700;7.306;2023-02-04T10:08:11;5.40;;;2.20;;
11187;SDS011;5650;52.700;7.306;2023-02-04T10:10:41;5.75;;;2.47;;
11187;SDS011;5650;52.700;7.306;2023-02-04T10:13:12;9.05;;;3.15;;
11187;SDS011;5650;52.700;7.306;2023-02-04T10:15:44;8.40;;;2.60;;
11187;SDS011;5650;52.700;7.306;2023-02-04T10:18:16;6.47;;;2.40;;
11187;SDS011;5650;52.700;7.306;2023-02-04T10:20:49;11.60;;;2.40;;
11187;SDS011;5650;52.700;7.306;2023-02-04T10:23:18;7.40;;;2.55;;
11187;SDS011;5650;52.700;7.306;2023-02-04T10:25:45;7.72;;;2.45;;
11187;SDS011;5650;52.700;7.306;2023-02-04T10:28:12;6.07;;;2.80;;
11187;SDS011;5650;52.700;7.306;2023-02-04T10:30:40;9.85;;;3.05;;
11187;SDS011;5650;52.700;7.306;2023-02-04T10:33:13;9.85;;;3.35;;
11187;SDS011;5650;52.700;7.306;2023-02-04T10:35:44;6.28;;;2.67;;
11187;SDS011;5650;52.700;7.306;2023-02-04T10:38:12;7.38;;;2.80;;
11187;SDS011;5650;52.700;7.306;2023-02-04T10:40:39;4.28;;;2.10;;
11187;SDS011;5650;52.700;7.306;2023-02-04T10:43:07;6.97;;;2.33;;
11187;SDS011;5650;52.700;7.306;2023-02-04T10:45:36;9.23;;;2.85;;
11187;SDS011;5650;52.700;7.306;2023-02-04T10:48:04;6.47;;;2.42;;
11187;SDS011;5650;52.700;7.306;2023-02-04T10:50:33;8.10;;;2.50;;
11187;SDS011;5650;52.700;7.306;2023-02-04T10:53:00;6.32;;;2.40;;
11187;SDS011;5650;52.700;7.306;2023-02-04T10:55:46;8.60;;;3.63;;
11187;SDS011;5650;52.700;7.306;2023-02-04T10:58:17;9.07;;;3.67;;
11187;SDS011;5650;52.700;7.306;2023-02-04T11:00:45;4.47;;;2.22;;
11187;SDS011;5650;52.700;7.306;2023-02-04T11:03:14;6.35;;;2.30;;
11187;SDS011;5650;52.700;7.306;2023-02-04T11:05:46;7.13;;;2.38;;
11187;SDS011;5650;52.700;7.306;2023-02-04T11:08:18;9.13;;;2.53;;
11187;SDS011;5650;52.700;7.306;2023-02-04T11:10:49;8.15;;;2.40;;
11187;SDS011;5650;52.700;7.306;2023-02-04T11:13:21;10.77;;;2.70;;
11187;SDS011;5650;52.700;7.306;2023-02-04T11:15:54;5.55;;;2.65;;
11187;SDS011;5650;52.700;7.306;2023-02-04T11:18:42;4.65;;;2.38;;
11187;SDS011;5650;52.700;7.306;2023-02-04T11:21:21;6.97;;;2.85;;
11187;SDS011;5650;52.700;7.306;2023-02-04T11:24:02;4.05;;;2.35;;
11187;SDS011;5650;52.700;7.306;2023-02-04T11:26:31;10.95;;;2.45;;
11187;SDS011;5650;52.700;7.306;2023-02-04T11:29:08;6.20;;;2.42;;
11187;SDS011;5650;52.700;7.306;2023-02-04T11:31:59;7.85;;;2.40;;
11187;SDS011;5650;52.700;7.306;2023-02-04T11:34:29;6.93;;;2.40;;
11187;SDS011;5650;52.700;7.306;2023-02-04T11:37:27;4.40;;;1.95;;
11187;SDS011;5650;52.700;7.306;2023-02-04T11:40:00;5.38;;;2.80;;
11187;SDS011;5650;52.700;7.306;2023-02-04T11:42:37;7.20;;;2.47;;
11187;SDS011;5650;52.700;7.306;2023-02-04T11:45:10;6.72;;;2.85;;
11187;SDS011;5650;52.700;7.306;2023-02-04T11:47:40;5.45;;;2.67;;
11187;SDS011;5650;52.700;7.306;2023-02-04T11:50:11;9.18;;;2.85;;
11187;SDS011;5650;52.700;7.306;2023-02-04T11:52:44;6.47;;;2.75;;
11187;SDS011;5650;52.700;7.306;2023-02-04T11:55:11;5.68;;;2.38;;
11187;SDS011;5650;52.700;7.306;2023-02-04T11:57:39;4.82;;;2.40;;
11187;SDS011;5650;52.700;7.306;2023-02-04T12:00:14;9.25;;;2.72;;
11187;SDS011;5650;52.700;7.306;2023-02-04T12:02:43;35.20;;;20.00;;
11187;SDS011;5650;52.700;7.306;2023-02-04T12:05:13;9.25;;;3.03;;
11187;SDS011;5650;52.700;7.306;2023-02-04T12:07:43;8.15;;;3.25;;
11187;SDS011;5650;52.700;7.306;2023-02-04T12:10:13;4.80;;;3.20;;
11187;SDS011;5650;52.700;7.306;2023-02-04T12:12:47;6.75;;;2.55;;
11187;SDS011;5650;52.700;7.306;2023-02-04T12:15:17;7.70;;;2.30;;
11187;SDS011;5650;52.700;7.306;2023-02-04T12:17:59;6.00;;;2.63;;
11187;SDS011;5650;52.700;7.306;2023-02-04T12:20:27;10.07;;;3.75;;
11187;SDS011;5650;52.700;7.306;2023-02-04T12:22:56;6.90;;;3.78;;
11187;SDS011;5650;52.700;7.306;2023-02-04T12:25:23;4.53;;;2.40;;
11187;SDS011;5650;52.700;7.306;2023-02-04T12:27:51;7.47;;;2.80;;
11187;SDS011;5650;52.700;7.306;2023-02-04T12:30:20;6.28;;;3.10;;
11187;SDS011;5650;52.700;7.306;2023-02-04T12:32:49;6.43;;;2.67;;
11187;SDS011;5650;52.700;7.306;2023-02-04T12:35:17;5.68;;;2.10;;
11187;SDS011;5650;52.700;7.306;2023-02-04T12:37:45;6.90;;;3.75;;
11187;SDS011;5650;52.700;7.306;2023-02-04T12:40:14;5.28;;;3.05;;
11187;SDS011;5650;52.700;7.306;2023-02-04T12:42:43;4.63;;;2.15;;
11187;SDS011;5650;52.700;7.306;2023-02-04T12:45:11;9.07;;;6.53;;
11187;SDS011;5650;52.700;7.306;2023-02-04T12:47:39;5.72;;;2.30;;
11187;SDS011;5650;52.700;7.306;2023-02-04T12:50:07;12.65;;;9.43;;
11187;SDS011;5650;52.700;7.306;2023-02-04T12:52:36;5.70;;;3.22;;
11187;SDS011;5650;52.700;7.306;2023-02-04T12:55:03;6.57;;;3.20;;
11187;SDS011;5650;52.700;7.306;2023-02-04T12:57:33;8.13;;;4.38;;
11187;SDS011;5650;52.700;7.306;2023-02-04T13:00:01;4.93;;;2.10;;
11187;SDS011;5650;52.700;7.306;2023-02-04T13:02:29;3.95;;;2.75;;
11187;SDS011;5650;52.700;7.306;2023-02-04T13:04:56;4.75;;;2.72;;
11187;SDS011;5650;52.700;7.306;2023-02-04T13:07:24;3.80;;;2.30;;
11187;SDS011;5650;52.700;7.306;2023-02-04T13:09:51;5.05;;;2.47;;
11187;SDS011;5650;52.700;7.306;2023-02-04T13:12:18;4.93;;;2.13;;
11187;SDS011;5650;52.700;7.306;2023-02-04T13:14:47;4.75;;;2.15;;
11187;SDS011;5650;52.700;7.306;2023-02-04T13:17:15;4.70;;;2.17;;
11187;SDS011;5650;52.700;7.306;2023-02-04T13:19:42;6.95;;;2.20;;
11187;SDS011;5650;52.700;7.306;2023-02-04T13:22:09;5.70;;;3.80;;
11187;SDS011;5650;52.700;7.306;2023-02-04T13:24:36;6.88;;;3.40;;
11187;SDS011;5650;52.700;7.306;2023-02-04T13:27:04;6.45;;;4.13;;
11187;SDS011;5650;52.700;7.306;2023-02-04T13:29:31;4.93;;;3.70;;
11187;SDS011;5650;52.700;7.306;2023-02-04T13:31:59;8.20;;;5.22;;
11187;SDS011;5650;52.700;7.306;2023-02-04T13:34:27;17.13;;;10.63;;
11187;SDS011;5650;52.700;7.306;2023-02-04T13:36:54;12.18;;;5.25;;
11187;SDS011;5650;52.700;7.306;2023-02-04T13:39:21;4.10;;;2.92;;
11187;SDS011;5650;52.700;7.306;2023-02-04T13:41:48;7.40;;;4.65;;
11187;SDS011;5650;52.700;7.306;2023-02-04T13:44:15;6.95;;;2.80;;
11187;SDS011;5650;52.700;7.306;2023-02-04T13:46:43;9.80;;;4.07;;
11187;SDS011;5650;52.700;7.306;2023-02-04T13:49:11;5.30;;;2.83;;
11187;SDS011;5650;52.700;7.306;2023-02-04T13:51:39;4.80;;;3.75;;
11187;SDS011;5650;52.700;7.306;2023-02-04T13:54:07;4.70;;;3.60;;
11187;SDS011;5650;52.700;7.306;2023-02-04T13:56:34;5.32;;;2.30;;
11187;SDS011;5650;52.700;7.306;2023-02-04T13:59:01;4.65;;;2.60;;
11187;SDS011;5650;52.700;7.306;2023-02-04T14:01:29;3.45;;;2.33;;
11187;SDS011;5650;52.700;7.306;2023-02-04T14:03:56;5.25;;;2.55;;
11187;SDS011;5650;52.700;7.306;2023-02-04T14:06:24;5.22;;;2.40;;
11187;SDS011;5650;52.700;7.306;2023-02-04T14:08:57;5.80;;;2.50;;
11187;SDS011;5650;52.700;7.306;2023-02-04T14:11:24;5.35;;;3.17;;
11187;SDS011;5650;52.700;7.306;2023-02-04T14:13:52;7.72;;;4.50;;
11187;SDS011;5650;52.700;7.306;2023-02-04T14:16:19;6.50;;;3.00;;
11187;SDS011;5650;52.700;7.306;2023-02-04T14:18:46;6.30;;;3.03;;
11187;SDS011;5650;52.700;7.306;2023-02-04T14:21:13;5.22;;;2.78;;
11187;SDS011;5650;52.700;7.306;2023-02-04T14:23:42;3.88;;;2.95;;
11187;SDS011;5650;52.700;7.306;2023-02-04T14:26:09;6.53;;;3.75;;
11187;SDS011;5650;52.700;7.306;2023-02-04T14:28:36;7.82;;;3.63;;
11187;SDS011;5650;52.700;7.306;2023-02-04T14:31:03;5.97;;;2.58;;
11187;SDS011;5650;52.700;7.306;2023-02-04T14:33:30;4.35;;;2.50;;
11187;SDS011;5650;52.700;7.306;2023-02-04T14:35:58;5.05;;;2.35;;
11187;SDS011;5650;52.700;7.306;2023-02-04T14:38:25;5.63;;;2.65;;
11187;SDS011;5650;52.700;7.306;2023-02-04T14:40:56;5.20;;;3.67;;
11187;SDS011;5650;52.700;7.306;2023-02-04T14:43:24;6.15;;;3.53;;
11187;SDS011;5650;52.700;7.306;2023-02-04T14:45:51;4.32;;;2.80;;
11187;SDS011;5650;52.700;7.306;2023-02-04T14:48:18;4.53;;;2.40;;
11187;SDS011;5650;52.700;7.306;2023-02-04T14:50:45;3.90;;;2.70;;
11187;SDS011;5650;52.700;7.306;2023-02-04T14:53:13;8.05;;;2.30;;
11187;SDS011;5650;52.700;7.306;2023-02-04T14:55:40;5.00;;;2.70;;
11187;SDS011;5650;52.700;7.306;2023-02-04T14:58:08;3.80;;;2.28;;
11187;SDS011;5650;52.700;7.306;2023-02-04T15:00:36;8.38;;;2.92;;
11187;SDS011;5650;52.700;7.306;2023-02-04T15:03:03;9.05;;;4.60;;
11187;SDS011;5650;52.700;7.306;2023-02-04T15:05:30;6.13;;;3.25;;
11187;SDS011;5650;52.700;7.306;2023-02-04T15:07:57;6.60;;;2.72;;